x

Montauk Point -23 Nm Ssw Of Montauk Point, Ny (44017) Wave Buoy

1:50am - Tue 28th Feb 2017 All times are EST. -5 hours from GMT.

  • Sig Wave height 3.0ft
  • Swell Direction
  • Peak Period 5s
  • Average Period 4s
  • Wind
    4mph
  • Sea Temp 46°f
  • Air Temp 46°f
  • Sea Pressure 1030.5mb
  • Montauk Point -23 Nm Ssw Of Montauk Point, Ny
  • Montauk Point -23 Nm Ssw Of Montauk Point, Ny

More Historic Weather Station data

Upgrade to MSW Pro to gain access to the past 30 days of data for over 8000 Wavebouys and Weather Stations around the globe.

Join Pro

Comparision Forecast

View Surf forecast
   
Tue 02/28 1:50am 3ft 5s 4s 4
mph
1030.5mb 46f 46f
12:50am 3ft 5s 4s 7 9 mph 1030.6mb 46f 47f
Mon 02/27 11:50pm 3.5ft 5s 4s 7
mph
1030.5mb 46f 47f
10:50pm 3.5ft 5s 4s 11 13 mph 1030.1mb 46f 47f
9:50pm 4.5ft 5s 4s 11 13 mph 1029.9mb 46f 47f
8:50pm 4.5ft 6s 4s 13 16 mph 1030.1mb 46f 47f
7:50pm 4.5ft 5s 4s 13 16 mph 1030.2mb 46f 47f
6:50pm 4.5ft 5s 4s 13 16 mph 1030mb 46f 47f
5:50pm 4.5ft 5s 4s 11 13 mph 1029.7mb 46f 46f
4:50pm 4ft 5s 4s 11 16 mph 1029.5mb 46f 46f
3:50pm 4.5ft 5s 5s 13 16 mph 1029.4mb 46f 46f
2:50pm 4.5ft 5s 4s 13 16 mph 1029.3mb 46f 46f
1:50pm 5ft 5s 5s 13 18 mph 1029.5mb 46f 45f
12:50pm 4.5ft 5s 4s 13 18 mph 1030.3mb 46f 44f
11:50am 4ft 5s 4s 13 18 mph 1031mb 45f 44f
10:50am 4ft 9s 4s 13 16 mph 1031.1mb 44f 43f
9:50am 4ft 9s 4s 13 18 mph 1030.7mb 44f 43f
8:50am 3.5ft 9s 4s 13 16 mph 1030.3mb 44f 42f
7:50am 3.5ft 10s 5s 11 13 mph 1029.7mb 44f 43f
6:50am 3.5ft 9s 5s 9 13 mph 1028.9mb 44f 42f
5:50am 3.5ft 10s 5s 11 13 mph 1028.5mb 44f 41f
4:50am 3.5ft 10s 5s 9 11 mph 1028mb 44f 40f
3:50am 4ft 10s 5s 9 13 mph 1027.6mb 44f 40f
2:50am 3.5ft 10s 5s 9 13 mph 1026.9mb 44f 39f
1:50am 4ft 9s 5s 11 13 mph 1026.5mb 44f 39f
12:50am 4ft 10s 5s 11 13 mph 1025.9mb 44f 38f
Sun 02/26 11:50pm 4.5ft 9s 5s 11 13 mph 1025mb 44f 38f
10:50pm 4.5ft 10s 5s 11 13 mph 1024.2mb 44f 38f
9:50pm 4.5ft 10s 5s 16 18 mph 1023.4mb 44f 39f
8:50pm 4.5ft 10s 5s 16 20 mph 1022.5mb 44f 39f
7:50pm 5ft 10s 5s 16 18 mph 1021.1mb 44f 39f
6:50pm 5ft 10s 5s 16 20 mph 1019.8mb 44f 40f
5:50pm 5ft 10s 5s 18 22 mph 1018.4mb 44f 40f
4:50pm 5.5ft 10s 5s 16 18 mph 1017.2mb 44f 40f
3:50pm 5ft 5s 5s 13 18 mph 1016.4mb 44f 40f
2:50pm 5ft 10s 5s 13 16 mph 1015.6mb 44f 40f
1:50pm 5ft 11s 5s 13 18 mph 1015.1mb 44f 39f
12:50pm 6ft 10s 5s 16 18 mph 1014.7mb 44f 39f
11:50am 5ft 10s 5s 16 20 mph 1014.2mb 44f 38f
10:50am 5.5ft 10s 5s 18 22 mph 1013.8mb 44f 38f
9:50am 6ft 11s 5s 20 25 mph 1012.9mb 44f 38f
8:50am 6ft 10s 5s 22 27 mph 1012mb 44f 39f
7:50am 6ft 11s 5s 25 29 mph 1011mb 44f 39f
6:50am 6ft 10s 5s 27 34 mph 1009.4mb 44f 40f
5:50am 6ft 11s 6s 25 31 mph 1008.2mb 44f 41f
4:50am 6.5ft 11s 6s 20 25 mph 1007.2mb 44f 42f
3:50am 6ft 11s 6s 25 31 mph 1005.6mb 44f 43f
2:50am 7ft 11s 6s 22 31 mph 1004.4mb 44f 43f
1:50am 6.5ft 11s 6s 22 29 mph 1003.6mb 45f 44f
12:50am 7ft 11s 6s 22 27 mph 1002.6mb 45f 44f
Sat 02/25 11:50pm 6ft 11s 7s 20 25 mph 1001mb 45f 47f
10:50pm 7ft 11s 7s 18 22 mph 1000.2mb 45f 47f
9:50pm 6.5ft 11s 7s 20 25 mph 1000.1mb 45f 50f
8:50pm 6ft 11s 8s 16 18 mph 1000.1mb 44f 49f
7:50pm 6ft 11s 7s 9 11 mph 999.4mb 45f 48f
6:50pm 6ft 11s 7s 9 11 mph 1000.4mb 45f 48f
5:50pm 5ft 10s 6s 13 16 mph 999.6mb 44f 48f
4:50pm 5.5ft 9s 6s 16 18 mph 1000mb 44f 48f
3:50pm 5ft 8s 7s 16 18 mph 1001.7mb 44f 49f
2:50pm 4.5ft 8s 7s 16 18 mph 1003mb 44f 49f
1:50pm 4.5ft 9s 7s 11 13 mph 1004.9mb 44f 48f
12:50pm 4.5ft 9s 7s 9 11 mph 1006.2mb 44f 48f
11:50am 4.5ft 8s 7s 13
mph
1007.1mb 44f 49f
10:50am 4ft 10s 7s 11 13 mph 1008.2mb 44f 49f
9:50am 4ft 10s 6s 9 11 mph 1009.2mb 44f 48f
8:50am 3.5ft 7s 6s 9
mph
1010.2mb 44f 49f
7:50am 3.5ft 10s 6s 9 11 mph 1010.5mb 44f 48f
6:50am 3.5ft 10s 6s 9 11 mph 1010.6mb 44f 47f
5:50am 2.5ft 10s 6s 11 13 mph 1010.7mb 44f 47f
4:50am 2.5ft 10s 6s 9 11 mph 1011.2mb 44f 47f
3:50am 2.5ft 11s 6s 9
mph
1011.3mb 44f 47f
2:50am 2.5ft 10s 5s 7 9 mph 1011.9mb 44f 47f
1:50am 2.5ft 10s 5s 7 9 mph 1012.3mb 44f 48f
12:50am 3ft 10s 5s 9 11 mph 1012.7mb 44f 49f
Fri 02/24 11:50pm 3ft 11s 5s 9 11 mph 1012.8mb 44f 49f
10:50pm 3ft 11s 5s 11 13 mph 1012.8mb 44f 50f
9:50pm 3ft 10s 5s 11
mph
1013.1mb 44f 49f
8:50pm 3.5ft 10s 6s 11 13 mph 1013.2mb 44f 49f
7:50pm 3.5ft 11s 6s 13
mph
1013.6mb 44f 49f
6:50pm 3.5ft 10s 6s 11 13 mph 1013.9mb 44f 49f
5:50pm 2.5ft 11s 5s 11 13 mph 1013.9mb 44f 49f
4:50pm 3.5ft 10s 6s 13
mph
1013.8mb 44f 49f
3:50pm 3ft 11s 5s 11 13 mph 1013.8mb 44f 50f
2:50pm 3ft 11s 6s 11 13 mph 1014.1mb 44f 50f
1:50pm 3.5ft 10s 6s 9 11 mph 1014.4mb 45f 49f
12:50pm 3.5ft 11s 6s 4 7 mph 1015.1mb 44f 49f
11:50am 3.5ft 11s 6s  -  mph 1016.1mb 43f 49f
10:50am 4ft 11s 6s  -  mph 1016.3mb 43f 49f
9:50am 3.5ft 11s 6s  -  7 mph 1016.4mb 43f 49f
8:50am 3.5ft 11s 6s 9 13 mph 1015.8mb 43f 50f